createdAt,value
2022-08-03T00:00:03.068Z,59
2022-08-03T00:20:07.887Z,60
2022-08-03T00:40:05.611Z,61
2022-08-03T01:00:03.080Z,62
2022-08-03T01:20:02.317Z,63
2022-08-03T01:40:02.681Z,63
2022-08-03T02:00:02.990Z,63
2022-08-03T02:20:02.325Z,63
2022-08-03T02:40:02.509Z,63
2022-08-03T03:00:02.676Z,64
2022-08-03T03:20:03.053Z,64
2022-08-03T03:40:02.332Z,64
2022-08-03T04:00:02.741Z,65
2022-08-03T04:20:03.047Z,65
2022-08-03T04:40:02.232Z,65
2022-08-03T05:00:03.846Z,66
2022-08-03T05:20:07.430Z,66
2022-08-03T05:40:02.745Z,64
2022-08-03T06:00:02.898Z,60
2022-08-03T06:20:02.334Z,55
2022-08-03T06:40:02.621Z,50
2022-08-03T07:00:12.362Z,44
2022-08-03T07:20:02.821Z,37
2022-08-03T07:40:03.248Z,34
2022-08-03T08:00:03.210Z,32
2022-08-03T08:20:02.630Z,31
2022-08-03T08:40:02.762Z,29
2022-08-03T09:00:03.051Z,26
2022-08-03T09:20:03.941Z,25
2022-08-03T09:40:02.191Z,24
2022-08-03T10:00:08.504Z,22
2022-08-03T10:20:02.974Z,21
2022-08-03T10:40:02.307Z,20
2022-08-03T11:00:07.586Z,20
2022-08-03T11:20:02.914Z,20
2022-08-03T11:40:03.093Z,20
2022-08-03T12:00:02.463Z,20
2022-08-03T12:20:02.838Z,20
2022-08-03T12:40:10.855Z,20
2022-08-03T13:00:02.471Z,22
2022-08-03T13:20:07.841Z,23
2022-08-03T13:40:05.832Z,23
2022-08-03T14:00:02.840Z,23
2022-08-03T14:20:36.248Z,23
2022-08-03T14:40:07.471Z,24
2022-08-03T15:00:07.642Z,24
2022-08-03T15:20:36.593Z,24
2022-08-03T15:40:03.306Z,25
2022-08-03T16:00:02.601Z,24
2022-08-03T16:20:29.125Z,24
2022-08-03T16:40:02.428Z,24
2022-08-03T17:00:02.841Z,24
2022-08-03T17:20:07.940Z,25
2022-08-03T18:00:03.697Z,26
2022-08-03T18:20:40.742Z,31
2022-08-03T18:40:07.586Z,33
2022-08-03T19:00:02.924Z,36
2022-08-03T19:20:02.227Z,39
2022-08-03T19:40:03.648Z,41
2022-08-03T20:00:04.165Z,44
2022-08-03T20:20:04.995Z,46
2022-08-03T20:40:02.148Z,47
2022-08-03T21:00:02.973Z,48
2022-08-03T21:13:14.837Z,25
2022-08-03T21:20:03.277Z,50
2022-08-03T21:40:02.436Z,51
2022-08-03T22:00:02.695Z,51
2022-08-03T22:20:02.920Z,53
2022-08-03T22:40:02.136Z,54
2022-08-03T23:00:02.415Z,54
2022-08-03T23:20:03.515Z,55
2022-08-03T23:40:02.590Z,56
